createdAt,value
2022-11-10T00:01:08.906Z,2.03
2022-11-10T00:03:37.039Z,2.05
2022-11-10T00:06:05.083Z,2.00
2022-11-10T00:08:31.871Z,1.90
2022-11-10T00:10:58.530Z,2.40
2022-11-10T00:13:35.393Z,1.63
2022-11-10T00:16:23.342Z,1.60
2022-11-10T00:18:50.431Z,2.00
2022-11-10T00:21:18.079Z,2.25
2022-11-10T00:23:47.385Z,2.30
2022-11-10T00:26:16.731Z,2.83
2022-11-10T00:28:44.218Z,1.60
2022-11-10T00:31:11.527Z,1.88
2022-11-10T00:33:40.087Z,1.95
2022-11-10T00:36:06.985Z,2.33
2022-11-10T00:38:33.406Z,1.65
2022-11-10T00:41:01.069Z,1.90
2022-11-10T00:43:29.645Z,1.50
2022-11-10T00:45:56.940Z,2.10
2022-11-10T00:48:23.598Z,1.85
2022-11-10T00:50:50.157Z,2.08
2022-11-10T00:53:16.728Z,1.83
2022-11-10T00:55:43.814Z,2.03
2022-11-10T00:58:10.323Z,1.60
2022-11-10T01:00:36.737Z,1.90
2022-11-10T01:03:03.757Z,1.88
2022-11-10T01:05:30.693Z,2.10
2022-11-10T01:07:59.492Z,1.60
2022-11-10T01:10:26.799Z,1.80
2022-11-10T01:12:53.958Z,2.05
2022-11-10T01:15:26.002Z,1.80
2022-11-10T01:17:55.554Z,1.88
2022-11-10T01:20:22.841Z,2.22
2022-11-10T01:22:49.351Z,2.30
2022-11-10T01:25:15.993Z,2.00
2022-11-10T01:27:42.383Z,2.20
2022-11-10T01:30:09.056Z,2.05
2022-11-10T01:32:35.472Z,2.75
2022-11-10T01:35:02.029Z,2.70
2022-11-10T01:37:28.472Z,2.33
2022-11-10T01:39:54.972Z,2.58
2022-11-10T01:42:38.038Z,2.10
2022-11-10T01:46:06.003Z,2.08
2022-11-10T01:48:48.753Z,2.20
2022-11-10T01:51:20.724Z,2.10
2022-11-10T01:53:52.059Z,2.63
2022-11-10T01:56:19.100Z,2.83
2022-11-10T01:58:54.846Z,2.47
2022-11-10T02:01:21.323Z,2.83
2022-11-10T02:03:51.349Z,2.40
2022-11-10T02:06:20.892Z,2.10
2022-11-10T02:08:48.761Z,1.77
2022-11-10T02:11:15.560Z,2.50
2022-11-10T02:13:42.976Z,2.10
2022-11-10T02:16:10.605Z,2.25
2022-11-10T02:18:38.439Z,2.42
2022-11-10T02:21:06.845Z,2.30
2022-11-10T02:23:36.235Z,2.60
2022-11-10T02:26:05.739Z,1.80
2022-11-10T02:28:37.010Z,2.22
2022-11-10T02:31:05.226Z,2.15
2022-11-10T02:33:31.684Z,2.55
2022-11-10T02:35:58.109Z,2.60
2022-11-10T02:38:24.564Z,2.50
2022-11-10T02:40:51.028Z,2.40
2022-11-10T02:43:19.439Z,2.25
2022-11-10T02:45:46.077Z,2.63
2022-11-10T02:48:14.297Z,2.25
2022-11-10T02:50:41.333Z,2.28
2022-11-10T02:53:08.047Z,1.98
2022-11-10T02:55:34.452Z,3.08
2022-11-10T02:58:01.143Z,2.60
2022-11-10T03:00:27.948Z,2.72
2022-11-10T03:03:05.055Z,2.85
2022-11-10T03:05:32.384Z,2.53
2022-11-10T03:08:01.258Z,1.90
2022-11-10T03:10:28.930Z,2.95
2022-11-10T03:13:01.163Z,2.17
2022-11-10T03:15:28.632Z,2.85
2022-11-10T03:17:55.765Z,3.58
2022-11-10T03:20:22.192Z,2.72
2022-11-10T03:22:48.707Z,2.08
2022-11-10T03:25:15.187Z,2.55
2022-11-10T03:27:41.628Z,2.33
2022-11-10T03:30:08.518Z,2.72
2022-11-10T03:32:35.032Z,2.90
2022-11-10T03:35:02.300Z,3.08
2022-11-10T03:37:28.764Z,2.30
2022-11-10T03:39:55.268Z,2.35
2022-11-10T03:42:21.819Z,2.72
2022-11-10T03:44:48.432Z,3.10
2022-11-10T03:47:14.911Z,3.63
2022-11-10T03:49:41.371Z,2.60
2022-11-10T03:52:07.759Z,2.60
2022-11-10T03:54:34.181Z,3.13
2022-11-10T03:57:00.593Z,2.92
2022-11-10T03:59:26.985Z,3.20
2022-11-10T04:01:53.468Z,2.63
2022-11-10T04:04:38.184Z,2.80
2022-11-10T04:07:22.960Z,2.38
2022-11-10T04:09:49.398Z,3.15
2022-11-10T04:12:34.603Z,3.13
2022-11-10T04:15:19.385Z,2.72
2022-11-10T04:17:52.041Z,2.88
2022-11-10T04:20:18.538Z,2.60
2022-11-10T04:23:03.275Z,3.63
2022-11-10T04:25:29.698Z,2.83
2022-11-10T04:27:56.103Z,3.47
2022-11-10T04:30:22.514Z,2.97
2022-11-10T04:32:48.902Z,3.25
2022-11-10T04:35:15.468Z,3.30
2022-11-10T04:37:41.947Z,3.17
2022-11-10T04:40:08.814Z,2.90
2022-11-10T04:42:35.185Z,4.32
2022-11-10T04:45:01.593Z,3.58
2022-11-10T04:47:27.985Z,4.28
2022-11-10T04:49:54.344Z,4.00
2022-11-10T04:52:20.740Z,3.55
2022-11-10T04:54:47.107Z,3.95
2022-11-10T04:57:13.508Z,3.42
2022-11-10T04:59:39.929Z,4.95
2022-11-10T05:02:06.351Z,3.20
2022-11-10T05:04:32.740Z,3.22
2022-11-10T05:06:59.199Z,3.88
2022-11-10T05:09:25.606Z,3.55
2022-11-10T05:11:52.005Z,3.38
2022-11-10T05:14:18.499Z,3.65
2022-11-10T05:16:44.957Z,3.47
2022-11-10T05:19:11.351Z,3.30
2022-11-10T05:21:37.825Z,3.80
2022-11-10T05:24:04.356Z,5.22
2022-11-10T05:26:30.745Z,3.35
2022-11-10T05:28:57.337Z,5.05
2022-11-10T05:31:23.818Z,3.83
2022-11-10T05:33:50.228Z,3.65
2022-11-10T05:36:16.695Z,3.92
2022-11-10T05:38:43.983Z,3.50
2022-11-10T05:41:11.078Z,4.50
2022-11-10T05:43:37.509Z,4.35
2022-11-10T05:46:03.987Z,3.80
2022-11-10T05:48:30.459Z,4.35
2022-11-10T05:50:56.909Z,4.38
2022-11-10T05:53:23.747Z,4.28
2022-11-10T05:55:50.509Z,4.15
2022-11-10T05:58:17.013Z,4.32
2022-11-10T06:00:43.482Z,3.65
2022-11-10T06:03:15.472Z,3.35
2022-11-10T06:05:41.987Z,4.13
2022-11-10T06:08:09.006Z,3.80
2022-11-10T06:10:36.808Z,4.03
2022-11-10T06:13:04.100Z,4.13
2022-11-10T06:15:30.900Z,4.18
2022-11-10T06:17:58.132Z,4.28
2022-11-10T06:20:25.355Z,3.72
2022-11-10T06:23:20.285Z,3.90
2022-11-10T06:25:46.944Z,3.80
2022-11-10T06:28:14.691Z,4.45
2022-11-10T06:30:41.111Z,4.18
2022-11-10T06:33:07.534Z,4.18
2022-11-10T06:38:02.961Z,3.83
2022-11-10T06:40:30.546Z,4.65
2022-11-10T06:42:57.794Z,4.65
2022-11-10T06:45:24.990Z,4.32
2022-11-10T06:48:01.382Z,4.30
2022-11-10T06:50:27.933Z,4.60
2022-11-10T06:55:23.221Z,4.10
2022-11-10T06:57:49.929Z,3.97
2022-11-10T07:00:17.085Z,4.03
2022-11-10T07:02:43.518Z,5.43
2022-11-10T07:05:09.931Z,5.47
2022-11-10T07:07:36.340Z,4.47
2022-11-10T07:10:06.739Z,4.55
2022-11-10T07:12:33.656Z,4.60
2022-11-10T07:15:00.076Z,4.82
2022-11-10T07:17:26.506Z,5.25
2022-11-10T07:19:52.923Z,4.75
2022-11-10T07:22:19.317Z,4.63
2022-11-10T07:24:45.766Z,4.63
2022-11-10T07:27:12.165Z,5.45
2022-11-10T07:29:39.760Z,6.18
2022-11-10T07:32:06.167Z,4.57
2022-11-10T07:34:32.578Z,5.55
2022-11-10T07:36:59.208Z,5.18
2022-11-10T07:39:25.617Z,5.80
2022-11-10T07:41:53.044Z,5.60
2022-11-10T07:44:19.535Z,5.40
2022-11-10T07:46:45.970Z,5.00
2022-11-10T07:49:12.461Z,5.55
2022-11-10T07:51:38.915Z,6.13
2022-11-10T07:54:05.597Z,5.78
2022-11-10T07:56:32.026Z,6.38
2022-11-10T07:58:58.459Z,5.78
2022-11-10T08:01:25.027Z,6.05
2022-11-10T08:03:51.508Z,6.15
2022-11-10T08:06:18.018Z,5.75
2022-11-10T08:08:46.969Z,6.57
2022-11-10T08:11:13.394Z,6.03
2022-11-10T08:13:39.878Z,6.50
2022-11-10T08:16:06.525Z,7.22
2022-11-10T08:18:35.540Z,6.97
2022-11-10T08:21:03.223Z,7.03
2022-11-10T08:23:29.732Z,6.95
2022-11-10T08:26:00.276Z,7.65
2022-11-10T08:28:27.516Z,8.43
2022-11-10T08:30:54.049Z,8.77
2022-11-10T08:33:21.934Z,8.68
2022-11-10T08:35:50.894Z,8.48
2022-11-10T08:38:20.072Z,9.50
2022-11-10T08:40:46.689Z,8.90
2022-11-10T08:43:14.084Z,9.75
2022-11-10T08:45:43.008Z,9.15
2022-11-10T08:48:18.466Z,9.13
2022-11-10T08:50:45.508Z,9.88
2022-11-10T08:53:14.398Z,9.60
2022-11-10T08:55:42.177Z,8.75
2022-11-10T08:58:12.643Z,10.05
2022-11-10T09:00:39.549Z,9.75
2022-11-10T09:03:13.546Z,8.98
2022-11-10T09:05:40.367Z,9.30
2022-11-10T09:08:07.112Z,8.48
2022-11-10T09:10:35.658Z,9.05
2022-11-10T09:13:03.551Z,8.02
2022-11-10T09:15:31.072Z,8.45
2022-11-10T09:17:59.677Z,8.57
2022-11-10T09:20:28.071Z,8.77
2022-11-10T09:22:54.754Z,8.55
2022-11-10T09:25:21.638Z,8.38
2022-11-10T09:27:48.103Z,8.82
2022-11-10T09:30:17.834Z,8.20
2022-11-10T09:32:46.777Z,8.98
2022-11-10T09:35:13.671Z,8.55
2022-11-10T09:37:40.506Z,8.25
2022-11-10T09:40:13.080Z,8.52
2022-11-10T09:42:41.403Z,7.95
2022-11-10T09:45:22.676Z,9.63
2022-11-10T09:48:05.194Z,8.20
2022-11-10T09:50:37.891Z,9.63
2022-11-10T09:53:10.044Z,8.90
2022-11-10T09:55:44.515Z,9.18
2022-11-10T09:58:13.423Z,9.23
2022-11-10T10:00:44.930Z,10.13
2022-11-10T10:03:17.956Z,8.85
2022-11-10T10:05:47.359Z,8.90
2022-11-10T10:08:36.405Z,9.15
2022-11-10T10:11:14.645Z,9.65
2022-11-10T10:14:07.440Z,8.98
2022-11-10T10:16:59.901Z,9.20
2022-11-10T10:19:57.679Z,8.23
2022-11-10T10:22:45.536Z,9.77
2022-11-10T10:25:19.374Z,9.93
2022-11-10T10:27:49.145Z,9.93
2022-11-10T10:30:19.322Z,10.68
2022-11-10T10:32:45.868Z,8.90
2022-11-10T10:35:14.800Z,10.60
2022-11-10T10:37:48.200Z,9.00
2022-11-10T10:40:17.525Z,9.35
2022-11-10T10:42:44.062Z,10.57
2022-11-10T10:45:19.120Z,10.65
2022-11-10T10:47:47.167Z,10.73
2022-11-10T10:50:28.606Z,9.40
2022-11-10T10:53:07.349Z,9.52
2022-11-10T10:55:36.895Z,10.02
2022-11-10T10:58:22.641Z,10.70
2022-11-10T11:00:56.620Z,10.60
2022-11-10T11:03:37.270Z,10.25
2022-11-10T11:06:08.169Z,11.55
2022-11-10T11:08:34.772Z,11.43
2022-11-10T11:11:10.107Z,10.85
2022-11-10T11:13:36.927Z,9.52
2022-11-10T11:16:07.690Z,10.45
2022-11-10T11:18:38.160Z,10.15
2022-11-10T11:21:33.508Z,10.15
2022-11-10T11:24:28.305Z,10.07
2022-11-10T11:27:34.037Z,9.20
2022-11-10T11:30:08.926Z,9.55
2022-11-10T11:33:19.532Z,10.70
2022-11-10T11:35:55.345Z,9.27
2022-11-10T11:38:33.178Z,9.20
2022-11-10T11:41:37.105Z,8.30
2022-11-10T11:44:03.521Z,8.68
2022-11-10T11:46:46.391Z,9.80
2022-11-10T11:49:52.751Z,8.82
2022-11-10T11:52:34.632Z,8.13
2022-11-10T11:57:52.955Z,8.50
2022-11-10T12:00:20.437Z,9.57
2022-11-10T12:03:28.136Z,7.80
2022-11-10T12:06:12.033Z,7.07
2022-11-10T12:08:43.233Z,7.22
2022-11-10T12:11:44.193Z,7.10
2022-11-10T12:14:13.616Z,7.28
2022-11-10T12:16:45.029Z,6.40
2022-11-10T12:19:32.719Z,6.60
2022-11-10T12:22:13.066Z,7.35
2022-11-10T12:24:57.198Z,8.23
2022-11-10T12:27:33.357Z,5.90
2022-11-10T12:30:04.494Z,5.93
2022-11-10T12:32:46.651Z,7.25
2022-11-10T12:35:22.634Z,6.55
2022-11-10T12:38:01.402Z,6.22
2022-11-10T12:40:37.980Z,6.18
2022-11-10T12:43:17.987Z,6.95
2022-11-10T12:45:47.480Z,6.93
2022-11-10T12:48:15.949Z,6.70
2022-11-10T12:50:49.360Z,6.45
2022-11-10T12:53:23.207Z,6.68
2022-11-10T12:56:23.987Z,6.30
2022-11-10T12:59:13.952Z,6.25
2022-11-10T13:01:46.006Z,6.25
2022-11-10T13:04:16.704Z,6.65
2022-11-10T13:06:52.962Z,6.25
2022-11-10T13:09:29.949Z,6.32
2022-11-10T13:12:23.145Z,5.95
2022-11-10T13:14:49.776Z,5.22
2022-11-10T13:17:28.695Z,5.70
2022-11-10T13:20:09.379Z,5.65
2022-11-10T13:22:44.015Z,6.28
2022-11-10T13:25:36.657Z,5.45
2022-11-10T13:28:04.544Z,5.03
2022-11-10T13:30:46.053Z,5.53
2022-11-10T13:33:35.540Z,6.38
2022-11-10T13:36:02.051Z,6.43
2022-11-10T13:38:37.463Z,6.10
2022-11-10T13:41:19.816Z,5.63
2022-11-10T13:43:54.266Z,5.60
2022-11-10T13:46:34.634Z,5.22
2022-11-10T13:49:22.124Z,5.32
2022-11-10T13:52:06.298Z,5.70
2022-11-10T13:54:38.728Z,5.80
2022-11-10T13:57:27.149Z,4.78
2022-11-10T14:00:00.498Z,6.88
2022-11-10T14:02:33.105Z,6.47
2022-11-10T14:05:04.704Z,5.85
2022-11-10T14:07:38.325Z,5.30
2022-11-10T14:10:12.171Z,7.07
2022-11-10T14:12:46.256Z,4.90
2022-11-10T14:15:17.639Z,5.65
2022-11-10T14:17:50.260Z,6.85
2022-11-10T14:20:37.793Z,6.22
2022-11-10T14:23:40.595Z,6.97
2022-11-10T14:26:16.925Z,6.35
2022-11-10T14:28:43.332Z,5.22
2022-11-10T14:31:19.319Z,5.00
2022-11-10T14:33:54.365Z,5.22
2022-11-10T14:36:20.933Z,4.70
2022-11-10T14:38:48.008Z,5.45
2022-11-10T14:41:22.595Z,5.15
2022-11-10T14:44:03.893Z,6.13
2022-11-10T14:46:30.431Z,5.53
2022-11-10T14:48:59.551Z,5.20
2022-11-10T14:51:28.964Z,4.38
2022-11-10T14:53:57.265Z,5.43
2022-11-10T14:56:28.929Z,5.63
2022-11-10T14:58:59.064Z,5.65
2022-11-10T15:01:38.695Z,5.65
2022-11-10T15:04:08.522Z,5.68
2022-11-10T15:06:35.972Z,5.78
2022-11-10T15:09:13.912Z,4.50
2022-11-10T15:11:48.895Z,4.75
2022-11-10T15:14:33.694Z,5.18
2022-11-10T15:17:07.934Z,5.15
2022-11-10T15:19:46.537Z,6.97
2022-11-10T15:22:16.434Z,6.65
2022-11-10T15:24:44.437Z,6.82
2022-11-10T15:27:23.936Z,5.85
2022-11-10T15:29:51.329Z,6.05
2022-11-10T15:32:23.518Z,5.35
2022-11-10T15:34:50.767Z,5.50
2022-11-10T15:37:31.080Z,5.78
2022-11-10T15:40:44.141Z,5.38
2022-11-10T15:43:15.383Z,4.57
2022-11-10T15:45:43.725Z,5.07
2022-11-10T15:48:13.685Z,7.00
2022-11-10T15:50:42.121Z,6.20
2022-11-10T15:53:13.999Z,4.35
2022-11-10T15:55:42.115Z,6.05
2022-11-10T15:58:13.169Z,4.45
2022-11-10T16:00:39.742Z,5.50
2022-11-10T16:03:10.461Z,4.35
2022-11-10T16:05:39.987Z,4.38
2022-11-10T16:08:34.580Z,4.07
2022-11-10T16:11:01.509Z,3.90
2022-11-10T16:13:30.440Z,4.05
2022-11-10T16:16:00.916Z,4.88
2022-11-10T16:18:29.922Z,5.00
2022-11-10T16:20:56.650Z,5.22
2022-11-10T16:23:24.011Z,6.55
2022-11-10T16:25:54.511Z,5.10
2022-11-10T16:28:26.991Z,6.70
2022-11-10T16:30:54.361Z,6.28
2022-11-10T16:33:23.234Z,5.85
2022-11-10T16:35:51.954Z,5.13
2022-11-10T16:38:29.348Z,6.97
2022-11-10T16:41:00.891Z,9.63
2022-11-10T16:43:29.026Z,8.98
2022-11-10T16:45:58.822Z,8.40
2022-11-10T16:48:30.460Z,7.20
2022-11-10T16:50:58.895Z,6.60
2022-11-10T16:53:28.480Z,5.25
2022-11-10T16:55:55.067Z,4.03
2022-11-10T16:58:22.020Z,3.95
2022-11-10T17:00:48.946Z,3.55
2022-11-10T17:03:36.481Z,4.22
2022-11-10T17:06:05.196Z,4.03
2022-11-10T17:08:34.212Z,3.33
2022-11-10T17:11:01.662Z,3.40
2022-11-10T17:13:28.053Z,3.92
2022-11-10T17:16:03.068Z,3.63
2022-11-10T17:18:29.651Z,3.50
2022-11-10T17:20:56.361Z,5.10
2022-11-10T17:23:25.352Z,3.22
2022-11-10T17:25:54.076Z,3.80
2022-11-10T17:28:20.567Z,2.90
2022-11-10T17:30:47.259Z,3.20
2022-11-10T17:33:13.888Z,4.38
2022-11-10T17:35:45.017Z,4.43
2022-11-10T17:38:14.674Z,3.70
2022-11-10T17:40:42.946Z,3.50
2022-11-10T17:43:11.962Z,3.55
2022-11-10T17:45:38.724Z,3.88
2022-11-10T17:48:05.611Z,3.60
2022-11-10T17:50:32.798Z,4.13
2022-11-10T17:53:04.341Z,4.03
2022-11-10T17:55:34.256Z,3.08
2022-11-10T17:58:01.057Z,3.50
2022-11-10T18:00:27.619Z,3.42
2022-11-10T18:02:55.461Z,4.18
2022-11-10T18:05:22.028Z,3.38
2022-11-10T18:07:52.027Z,2.70
2022-11-10T18:10:18.679Z,3.13
2022-11-10T18:12:45.217Z,3.45
2022-11-10T18:15:16.559Z,3.13
2022-11-10T18:17:43.290Z,3.63
2022-11-10T18:20:10.967Z,3.67
2022-11-10T18:22:37.492Z,3.95
2022-11-10T18:25:04.853Z,3.47
2022-11-10T18:27:31.721Z,4.50
2022-11-10T18:29:58.202Z,5.57
2022-11-10T18:32:24.676Z,5.72
2022-11-10T18:34:51.203Z,5.20
2022-11-10T18:37:19.015Z,5.00
2022-11-10T18:39:45.442Z,4.30
2022-11-10T18:42:12.010Z,4.93
2022-11-10T18:44:39.120Z,3.85
2022-11-10T18:47:07.374Z,3.58
2022-11-10T18:49:33.806Z,3.90
2022-11-10T18:52:00.497Z,3.53
2022-11-10T18:54:27.498Z,3.17
2022-11-10T18:56:54.244Z,3.13
2022-11-10T18:59:20.857Z,4.43
2022-11-10T19:01:47.626Z,3.30
2022-11-10T19:04:14.291Z,4.13
2022-11-10T19:06:41.031Z,3.00
2022-11-10T19:09:07.519Z,3.25
2022-11-10T19:11:34.383Z,2.70
2022-11-10T19:14:01.988Z,3.80
2022-11-10T19:16:28.928Z,3.17
2022-11-10T19:18:56.124Z,2.85
2022-11-10T19:21:26.318Z,2.83
2022-11-10T19:23:57.171Z,3.00
2022-11-10T19:26:25.252Z,4.93
2022-11-10T19:28:55.328Z,2.85
2022-11-10T19:31:23.477Z,3.22
2022-11-10T19:33:52.874Z,3.45
2022-11-10T19:36:30.083Z,3.67
2022-11-10T19:38:56.938Z,3.65
2022-11-10T19:41:28.756Z,2.75
2022-11-10T19:46:30.294Z,3.70
2022-11-10T19:48:57.219Z,3.17
2022-11-10T19:51:24.782Z,3.25
2022-11-10T19:54:02.018Z,2.95
2022-11-10T19:56:31.973Z,3.47
2022-11-10T19:58:59.073Z,2.97
2022-11-10T20:01:26.412Z,2.92
2022-11-10T20:03:53.132Z,3.15
2022-11-10T20:06:22.475Z,2.83
2022-11-10T20:08:49.648Z,2.97
2022-11-10T20:11:22.864Z,3.03
2022-11-10T20:13:54.666Z,3.50
2022-11-10T20:16:22.422Z,3.05
2022-11-10T20:18:48.901Z,3.97
2022-11-10T20:21:20.081Z,4.20
2022-11-10T20:23:52.359Z,3.80
2022-11-10T20:26:18.777Z,4.18
2022-11-10T20:28:45.291Z,3.50
2022-11-10T20:31:30.053Z,3.35
2022-11-10T20:33:56.723Z,3.40
2022-11-10T20:36:28.122Z,3.78
2022-11-10T20:38:56.439Z,3.75
2022-11-10T20:41:25.826Z,2.80
2022-11-10T20:43:52.405Z,3.00
2022-11-10T20:46:53.090Z,2.92
2022-11-10T20:49:07.397Z,3.38
2022-11-10T20:51:33.828Z,3.42
2022-11-10T20:54:01.252Z,3.20
2022-11-10T20:56:29.904Z,4.07
2022-11-10T20:58:57.366Z,3.80
2022-11-10T21:01:23.845Z,4.53
2022-11-10T21:03:50.490Z,3.55
2022-11-10T21:06:17.377Z,3.50
2022-11-10T21:08:43.845Z,3.55
2022-11-10T21:11:11.098Z,2.95
2022-11-10T21:13:38.862Z,4.32
2022-11-10T21:16:06.251Z,4.47
2022-11-10T21:18:35.527Z,3.67
2022-11-10T21:21:03.665Z,3.42
2022-11-10T21:23:30.133Z,3.67
2022-11-10T21:25:58.959Z,4.13
2022-11-10T21:28:25.750Z,3.10
2022-11-10T21:30:52.297Z,3.50
2022-11-10T21:33:18.782Z,3.25
2022-11-10T21:35:45.176Z,3.50
2022-11-10T21:38:12.482Z,4.00
2022-11-10T21:40:39.573Z,3.65
2022-11-10T21:43:06.313Z,4.57
2022-11-10T21:45:32.727Z,3.55
2022-11-10T21:48:03.079Z,3.88
2022-11-10T21:50:29.649Z,4.55
2022-11-10T21:52:56.096Z,3.65
2022-11-10T21:55:22.555Z,3.28
2022-11-10T21:57:54.937Z,3.95
2022-11-10T22:00:21.608Z,3.92
2022-11-10T22:02:48.013Z,3.55
2022-11-10T22:05:14.476Z,3.13
2022-11-10T22:07:40.953Z,4.47
2022-11-10T22:13:07.029Z,3.05
2022-11-10T22:15:51.688Z,3.97
2022-11-10T22:18:37.024Z,3.40
2022-11-10T22:21:04.912Z,3.47
2022-11-10T22:23:51.694Z,3.75
2022-11-10T22:26:18.742Z,3.60
2022-11-10T22:28:45.797Z,4.22
2022-11-10T22:31:12.836Z,3.45
2022-11-10T22:33:41.510Z,3.20
2022-11-10T22:36:12.790Z,3.88
2022-11-10T22:38:41.131Z,4.07
2022-11-10T22:41:31.752Z,2.97
2022-11-10T22:44:04.266Z,3.80
2022-11-10T22:46:34.719Z,3.95
2022-11-10T22:49:02.721Z,3.88
2022-11-10T22:51:30.839Z,3.35
2022-11-10T22:53:57.791Z,3.38
2022-11-10T22:56:24.711Z,4.47
2022-11-10T22:58:56.968Z,3.13
2022-11-10T23:01:26.065Z,2.92
2022-11-10T23:03:52.554Z,3.15
2022-11-10T23:06:19.092Z,3.88
2022-11-10T23:08:45.587Z,3.67
2022-11-10T23:11:17.387Z,3.45
2022-11-10T23:16:13.279Z,3.90
2022-11-10T23:18:41.851Z,3.33
2022-11-10T23:21:10.994Z,3.40
2022-11-10T23:23:38.763Z,3.65
2022-11-10T23:26:08.066Z,2.55
2022-11-10T23:28:35.600Z,3.38
2022-11-10T23:31:04.760Z,3.42
2022-11-10T23:33:33.009Z,2.75
2022-11-10T23:36:00.248Z,3.60
2022-11-10T23:38:29.824Z,3.78
2022-11-10T23:40:56.616Z,3.55
2022-11-10T23:43:24.468Z,4.07
2022-11-10T23:46:06.488Z,3.47
2022-11-10T23:48:35.064Z,3.40
2022-11-10T23:51:01.700Z,4.03
2022-11-10T23:53:28.231Z,3.50
2022-11-10T23:55:59.021Z,3.45
2022-11-10T23:58:26.168Z,4.28
